»·PEaware :: FDX5954 KSAN-KTUS

FDX5954 :: KSAN-KTUS

FLIGHT INFORMATION

Flight Status: Arrived
Operator:
Federal Express
More flights by this operator :: More flights under this callsign
Pilot: Joshua M. (19482)
Aircraft: BOEING 737-800
(B738)
More flights by this aircraft type
Origin: KSAN San Diego Intl-Lindbergh
United States
Destination: KTUS Tucson Intl
United States
More flights between these airports :: More routes between these airports
Route: +BRDR7 IPL J2 GBN DINGO5
File this flight plan on PilotEdge
Remarks: Outdated FMC Default XPlane
Altitude:
(Current/Filed)
330ft
Speed:
(Current/Filed)
450kts
Departed: 06-Oct-18 06:26 PM
Arrived: 06-Oct-18 07:38 PM
Distance/Time
Traveled:
319nm/1:12
Distance/Time
To Go:
Arrived

Flight Plot

Page will automatically refresh every two minutes.

Flight plan parsing failed; only flown route is shown


Map Options




Map Legend


Flown Route
Filed Route
Departure Airport
Arrival Airport
Navaid (VOR, NDB)
Fix

Horizontal Profiles

Position Reports

Time Latitude Longitude Heading Altitude Ground
Speed
06-Oct-18 17:47 32.736621 -117.184993 356 24ft 0kts
06-Oct-18 17:48 32.736621 -117.184993 356 24ft 0kts
06-Oct-18 17:49 32.736621 -117.184993 356 24ft 0kts
06-Oct-18 17:50 32.736621 -117.184993 356 24ft 0kts
06-Oct-18 17:51 32.736621 -117.184993 356 24ft 0kts
06-Oct-18 17:52 32.736621 -117.184993 356 24ft 0kts
06-Oct-18 17:53 32.736621 -117.184993 356 24ft 0kts
06-Oct-18 17:54 32.736621 -117.184993 356 24ft 0kts
06-Oct-18 17:55 32.736621 -117.184993 356 24ft 0kts
06-Oct-18 17:56 32.736621 -117.184993 356 24ft 0kts
06-Oct-18 17:57 32.736621 -117.184993 356 24ft 0kts
06-Oct-18 17:58 32.736621 -117.184993 356 24ft 0kts
06-Oct-18 17:59 32.736621 -117.184993 356 24ft 0kts
06-Oct-18 18:00 32.736621 -117.184993 356 24ft 0kts
06-Oct-18 18:01 32.736621 -117.184993 356 24ft 0kts
06-Oct-18 18:02 32.736621 -117.184993 356 24ft 0kts
06-Oct-18 18:03 32.736621 -117.184993 356 24ft 0kts
06-Oct-18 18:04 32.736620 -117.184993 356 25ft 0kts
06-Oct-18 18:05 32.736347 -117.184960 355 25ft 2kts
06-Oct-18 18:06 32.735919 -117.184946 50 25ft 1kts
06-Oct-18 18:07 32.735675 -117.185244 45 25ft 1kts
06-Oct-18 18:08 32.735577 -117.185282 348 24ft 0kts
06-Oct-18 18:09 32.735577 -117.185282 348 24ft 0kts
06-Oct-18 18:10 32.735577 -117.185282 348 24ft 0kts
06-Oct-18 18:11 32.735646 -117.185298 348 24ft 3kts
06-Oct-18 18:12 32.735801 -117.184955 149 24ft 4kts
06-Oct-18 18:13 32.733640 -117.183998 174 24ft 6kts
06-Oct-18 18:14 32.732561 -117.180821 105 24ft 21kts
06-Oct-18 18:15 32.730967 -117.175546 135 24ft 4kts
06-Oct-18 18:16 32.730948 -117.175524 135 24ft 0kts
06-Oct-18 18:17 32.730948 -117.175524 135 24ft 0kts
06-Oct-18 18:18 32.730948 -117.175524 135 24ft 0kts
06-Oct-18 18:19 32.730948 -117.175524 135 24ft 0kts
06-Oct-18 18:20 32.730948 -117.175524 135 24ft 0kts
06-Oct-18 18:21 32.730948 -117.175524 135 24ft 0kts
06-Oct-18 18:22 32.730948 -117.175524 135 24ft 0kts
06-Oct-18 18:23 32.730948 -117.175524 135 24ft 0kts
06-Oct-18 18:24 32.730948 -117.175524 135 24ft 0kts
06-Oct-18 18:25 32.730948 -117.175524 135 24ft 0kts
06-Oct-18 18:26 32.730948 -117.175524 135 24ft 0kts
06-Oct-18 18:27 32.730223 -117.175882 284 25ft 13kts
06-Oct-18 18:28 32.736501 -117.200966 288 312ft 166kts
06-Oct-18 18:29 32.751090 -117.250811 290 2637ft 196kts
06-Oct-18 18:30 32.767851 -117.307449 290 4927ft 211kts
06-Oct-18 18:31 32.744234 -117.352715 165 7018ft 243kts
06-Oct-18 18:32 32.711511 -117.298835 100 8086ft 278kts
06-Oct-18 18:33 32.692363 -117.226214 130 9594ft 286kts
06-Oct-18 18:34 32.645919 -117.168014 134 11630ft 298kts
06-Oct-18 18:35 32.612585 -117.111749 102 12926ft 319kts
06-Oct-18 18:36 32.608968 -117.014487 89 14493ft 348kts
06-Oct-18 18:37 32.616029 -116.898992 79 16657ft 361kts
06-Oct-18 18:38 32.627900 -116.787892 79 18548ft 374kts
06-Oct-18 18:39 32.640490 -116.663492 79 20477ft 387kts
06-Oct-18 18:40 32.652564 -116.541554 78 22120ft 400kts
06-Oct-18 18:41 32.665401 -116.409431 78 23742ft 412kts
06-Oct-18 18:42 32.677374 -116.284545 78 25126ft 422kts
06-Oct-18 18:43 32.689116 -116.160716 77 26373ft 430kts
06-Oct-18 18:44 32.699348 -116.051488 77 27394ft 437kts
06-Oct-18 18:45 32.710057 -115.935885 77 28390ft 444kts
06-Oct-18 18:46 32.721413 -115.811722 76 29461ft 449kts
06-Oct-18 18:47 32.733861 -115.673299 76 30779ft 448kts
06-Oct-18 18:48 32.760089 -115.530309 49 30951ft 448kts
06-Oct-18 18:49 32.839148 -115.417092 40 30919ft 456kts
06-Oct-18 18:50 32.914144 -115.314767 43 30799ft 461kts
06-Oct-18 18:51 33.001715 -115.198440 59 30654ft 497kts
06-Oct-18 18:52 32.985385 -115.043185 123 30699ft 503kts
06-Oct-18 18:53 32.917371 -114.904206 124 30613ft 501kts
06-Oct-18 18:54 32.847490 -114.762863 124 30574ft 496kts
06-Oct-18 18:55 32.777022 -114.624426 126 30526ft 493kts
06-Oct-18 18:56 32.756137 -114.465698 74 30368ft 510kts
06-Oct-18 18:57 32.772961 -114.303253 90 30353ft 506kts
06-Oct-18 18:58 32.779549 -114.136714 93 30356ft 508kts
06-Oct-18 18:59 32.776648 -113.969403 86 30661ft 510kts
06-Oct-18 19:00 32.798932 -113.805018 80 30695ft 509kts
06-Oct-18 19:01 32.821884 -113.645057 80 30714ft 509kts
06-Oct-18 19:02 32.843286 -113.493989 80 30747ft 508kts
06-Oct-18 19:03 32.865487 -113.335551 81 30752ft 509kts
06-Oct-18 19:04 32.886831 -113.182339 81 30742ft 493kts
06-Oct-18 19:05 32.907185 -113.034566 81 30748ft 495kts
06-Oct-18 19:06 32.924633 -112.906825 81 29746ft 474kts
06-Oct-18 19:07 32.941696 -112.780639 81 26226ft 457kts
06-Oct-18 19:08 32.931188 -112.616701 115 23749ft 428kts
06-Oct-18 19:09 32.908887 -112.520395 92 23783ft 435kts
06-Oct-18 19:10 32.913450 -112.392881 89 22930ft 431kts
06-Oct-18 19:11 32.917018 -112.261751 102 20989ft 414kts
06-Oct-18 19:12 32.885292 -112.164986 120 19416ft 393kts
06-Oct-18 19:13 32.834811 -112.038232 119 17284ft 380kts
06-Oct-18 19:14 32.798717 -111.948251 119 15776ft 371kts
06-Oct-18 19:15 32.757187 -111.845393 119 14060ft 361kts
06-Oct-18 19:16 32.713448 -111.742943 132 12309ft 346kts
06-Oct-18 19:17 32.650627 -111.667586 139 11911ft 340kts
06-Oct-18 19:18 32.588421 -111.595278 139 11909ft 340kts
06-Oct-18 19:19 32.524289 -111.520707 139 11909ft 340kts
06-Oct-18 19:20 32.463340 -111.449810 139 11909ft 340kts
06-Oct-18 19:21 32.400781 -111.376523 139 11246ft 306kts
06-Oct-18 19:22 32.346636 -111.313124 139 10106ft 297kts
06-Oct-18 19:23 32.291196 -111.249074 139 8859ft 292kts
06-Oct-18 19:24 32.238759 -111.202375 149 7931ft 279kts
06-Oct-18 19:25 32.176200 -111.153181 149 7000ft 273kts
06-Oct-18 19:26 32.113459 -111.103776 149 6998ft 277kts
06-Oct-18 19:27 32.049692 -111.053287 149 6998ft 279kts
06-Oct-18 19:28 31.985302 -111.002022 149 6998ft 281kts
06-Oct-18 19:29 31.922629 -110.951938 149 6990ft 278kts
06-Oct-18 19:30 31.864700 -110.904831 149 6988ft 232kts
06-Oct-18 19:31 31.822793 -110.860183 105 7023ft 208kts
06-Oct-18 19:32 31.853991 -110.812901 10 7015ft 206kts
06-Oct-18 19:33 31.906949 -110.797198 9 7002ft 205kts
06-Oct-18 19:34 31.961323 -110.783909 344 6992ft 197kts
06-Oct-18 19:35 32.011620 -110.793684 8 6007ft 196kts
06-Oct-18 19:36 32.036916 -110.830868 280 5997ft 176kts
06-Oct-18 19:37 32.061555 -110.871213 307 5024ft 155kts
06-Oct-18 19:38 32.086594 -110.903798 308 3489ft 154kts
06-Oct-18 19:39 32.108374 -110.930337 312 2698ft 154kts
06-Oct-18 19:40 32.123143 -110.947588 0 2651ft 6kts
06-Oct-18 19:41 32.123862 -110.947038 45 2651ft 0kts
06-Oct-18 19:42 32.123862 -110.947038 45 2651ft 0kts
06-Oct-18 19:43 32.123325 -110.945319 134 2650ft 18kts
06-Oct-18 19:44 32.117353 -110.938348 134 2650ft 38kts
06-Oct-18 19:45 32.114039 -110.932996 42 2651ft 7kts
06-Oct-18 19:46 32.115153 -110.932797 309 2651ft 0kts

Navigation Log

Ident Type
Flight plan parsing failed, navigation log unavailable